Time;durP1;ratioP1;P1;durP2;ratioP2;P2;SDS_P1;SDS_P2;PMS_P1;PMS_P2;Temp;Humidity;BMP_temperature;BMP_pressure;BME280_temperature;BME280_humidity;BME280_pressure;Samples;Min_cycle;Max_cycle;Signal;HPM_P1;HPM_P2
2022/01/12 00:01:06;;;;;;;8.18;7.53;;;;;;;-11.70;78.57;101273.41;6123656;23;20374;-74
2022/01/12 00:03:33;;;;;;;7.03;6.25;;;;;;;-11.65;79.20;101291.28;6097820;23;20018;-74
2022/01/12 00:06:00;;;;;;;8.68;7.88;;;;;;;-11.77;79.27;101256.25;6123822;23;20017;-74
2022/01/12 00:08:26;;;;;;;8.88;7.25;;;;;;;-11.66;78.92;101282.88;6122220;23;20493;-75
2022/01/12 00:10:52;;;;;;;10.52;9.65;;;;;;;-11.70;79.29;101300.25;6123893;23;20010;-74
2022/01/12 00:13:18;;;;;;;7.80;7.10;;;;;;;-11.68;79.57;101291.97;6123643;23;20025;-74
2022/01/12 00:15:44;;;;;;;7.88;6.75;;;;;;;-11.69;79.78;101290.25;6122106;23;20020;-74
2022/01/12 00:18:13;;;;;;;9.63;8.73;;;;;;;-11.77;79.55;101291.47;6123233;23;20022;-71
2022/01/12 00:20:39;;;;;;;5.60;5.05;;;;;;;-11.79;80.01;101280.47;6097396;23;20039;-73
2022/01/12 00:23:05;;;;;;;6.93;6.22;;;;;;;-11.76;79.79;101297.38;6097506;23;20104;-73
2022/01/12 00:25:45;;;;;;;7.05;6.45;;;;;;;-11.78;80.08;101312.41;6123634;23;20045;-74
2022/01/12 00:33:41;;;;;;;7.88;7.18;;;;;;;-11.85;79.62;101291.84;6097553;23;20502;-74
2022/01/12 00:36:07;;;;;;;10.00;9.05;;;;;;;-11.92;79.19;101295.66;6122320;23;20065;-73
2022/01/12 00:38:33;;;;;;;13.57;12.38;;;;;;;-11.93;78.74;101303.97;6123688;23;20076;-73
2022/01/12 00:40:59;;;;;;;9.52;8.57;;;;;;;-11.92;78.81;101289.75;6123095;23;20018;-74
2022/01/12 00:43:27;;;;;;;7.35;6.75;;;;;;;-11.91;78.78;101294.84;6123560;23;20036;-74
2022/01/12 00:45:54;;;;;;;13.45;12.25;;;;;;;-11.98;79.90;101299.47;6121677;23;20018;-73
2022/01/12 00:48:20;;;;;;;12.88;11.57;;;;;;;-11.97;79.79;101307.09;6146096;23;20420;-74
2022/01/12 00:50:46;;;;;;;5.18;4.85;;;;;;;-11.94;79.79;101301.38;6121806;23;20018;-74
2022/01/12 00:53:13;;;;;;;10.23;9.27;;;;;;;-11.98;79.55;101292.78;6145714;23;20041;-74
2022/01/12 00:55:41;;;;;;;12.20;11.00;;;;;;;-12.02;80.09;101290.88;6121859;23;20022;-74
2022/01/12 00:58:07;;;;;;;11.25;10.15;;;;;;;-12.01;80.19;101286.72;6126116;23;20100;-74
2022/01/12 01:00:33;;;;;;;10.80;8.23;;;;;;;-12.03;79.49;101281.56;6102573;23;20017;-74
2022/01/12 01:02:59;;;;;;;10.32;9.00;;;;;;;-12.03;79.46;101270.63;6152770;23;20348;-74
2022/01/12 01:05:26;;;;;;;8.20;7.40;;;;;;;-12.02;78.35;101287.47;6128083;23;20424;-74
2022/01/12 01:07:53;;;;;;;5.95;5.45;;;;;;;-12.09;78.64;101285.38;6126693;23;20013;-74
2022/01/12 01:11:04;;;;;;;7.35;6.65;;;;;;;-12.10;78.80;101292.06;6126759;23;20025;-74
2022/01/12 01:13:08;;;;;;;10.27;9.25;;;;;;;-12.14;78.89;101287.66;6106166;23;20013;-74
2022/01/12 01:26:31;;;;;;;7.28;6.60;;;;;;;-12.27;82.07;101301.13;6106433;23;20370;-72
2022/01/12 01:28:57;;;;;;;22.15;7.03;;;;;;;-12.34;82.18;101301.56;6078246;23;20024;-75
2022/01/12 01:31:32;;;;;;;5.65;5.03;;;;;;;-12.36;82.94;101302.25;6127418;23;20524;-73
2022/01/12 01:34:07;;;;;;;3.78;3.42;;;;;;;-12.34;82.25;101293.16;6102609;23;20025;-73
2022/01/12 01:36:34;;;;;;;6.80;5.88;;;;;;;-12.42;82.96;101300.22;6128903;23;20021;-74
2022/01/12 01:39:01;;;;;;;3.40;3.10;;;;;;;-12.40;82.66;101291.13;6126833;23;20032;-74
2022/01/12 01:41:27;;;;;;;6.07;5.00;;;;;;;-12.44;83.12;101300.94;6126980;23;20458;-74
2022/01/12 01:53:18;;;;;;;4.32;4.03;;;;;;;-12.51;83.07;101293.78;6129297;23;20064;-73
2022/01/12 01:55:09;;;;;;;5.30;4.88;;;;;;;-12.54;83.81;101303.66;6093038;23;20021;-74
2022/01/12 01:57:38;;;;;;;5.15;4.75;;;;;;;-12.55;83.20;101296.88;6115544;23;20026;-73
2022/01/12 02:00:09;;;;;;;2.55;2.42;;;;;;;-12.61;83.61;101281.44;6118063;23;20029;-74
2022/01/12 02:02:51;;;;;;;4.72;4.32;;;;;;;-12.67;82.77;101292.00;6166190;23;20017;-72
2022/01/12 02:05:17;;;;;;;5.95;5.55;;;;;;;-12.63;82.42;101293.94;6094401;23;20017;-73
2022/01/12 02:07:44;;;;;;;4.97;4.50;;;;;;;-12.65;82.30;101295.47;6142513;23;20095;-74
2022/01/12 02:10:10;;;;;;;3.75;3.45;;;;;;;-12.68;83.06;101264.25;6118985;23;20017;-74
2022/01/12 02:12:47;;;;;;;4.28;3.97;;;;;;;-12.62;82.34;101264.63;6120710;23;20100;-72
2022/01/12 02:15:21;;;;;;;6.38;5.78;;;;;;;-12.66;83.47;101272.78;6118437;23;20442;-74
2022/01/12 02:40:07;;;;;;;8.15;7.45;;;;;;;-12.74;80.00;101260.63;6130333;23;20025;-74
2022/01/12 02:42:34;;;;;;;5.78;5.28;;;;;;;-12.68;79.25;101250.03;6126704;23;20029;-74
2022/01/12 02:50:57;;;;;;;7.68;6.90;;;;;;;-12.72;79.38;101231.41;6130967;23;20184;-73
2022/01/12 02:53:39;;;;;;;5.60;5.10;;;;;;;-12.72;79.95;101233.03;6129748;23;20041;-74
2022/01/12 02:56:15;;;;;;;5.57;4.93;;;;;;;-12.62;80.17;101252.03;6127228;23;20021;-74
2022/01/12 02:58:42;;;;;;;6.30;4.03;;;;;;;-12.65;81.40;101244.31;6125560;23;20017;-73
2022/01/12 03:03:56;;;;;;;7.07;5.28;;;;;;;-12.67;81.16;101233.31;6151937;23;20021;-73
2022/01/12 03:06:28;;;;;;;3.83;3.53;;;;;;;-12.65;81.76;101234.28;6125868;23;20037;-73
2022/01/12 03:08:55;;;;;;;4.78;4.25;;;;;;;-12.66;81.08;101230.03;6151341;23;20024;-73
2022/01/12 03:11:22;;;;;;;3.28;3.03;;;;;;;-12.68;80.80;101239.13;6125349;23;20017;-74
2022/01/12 03:13:50;;;;;;;6.25;5.65;;;;;;;-12.70;81.45;101241.56;6102082;23;20022;-75
2022/01/12 03:16:20;;;;;;;5.15;4.75;;;;;;;-12.68;81.29;101249.19;6132506;23;20060;-75
2022/01/12 03:18:49;;;;;;;5.82;4.72;;;;;;;-12.69;82.05;101244.94;6082298;23;20017;-75
2022/01/12 03:21:16;;;;;;;5.40;3.88;;;;;;;-12.72;80.69;101243.97;6103554;23;20458;-75
2022/01/12 03:23:42;;;;;;;7.22;6.50;;;;;;;-12.78;80.99;101248.63;6103326;23;20021;-74
2022/01/12 03:26:09;;;;;;;5.63;4.93;;;;;;;-12.75;81.38;101243.78;6127109;23;20024;-74
2022/01/12 03:28:38;;;;;;;5.53;5.05;;;;;;;-12.80;79.97;101254.34;6128437;23;20045;-74
2022/01/12 03:31:20;;;;;;;6.22;5.63;;;;;;;-12.81;81.41;101243.41;6105018;23;20221;-74
2022/01/12 03:38:59;;;;;;;5.30;4.65;;;;;;;-12.80;81.37;101244.28;6127172;23;20021;-73
2022/01/12 03:41:29;;;;;;;3.30;3.10;;;;;;;-12.73;82.29;101247.25;6154080;23;20104;-77
2022/01/12 03:43:58;;;;;;;5.68;5.20;;;;;;;-12.77;82.04;101250.38;6127000;23;20273;-74
2022/01/12 03:46:34;;;;;;;6.43;5.65;;;;;;;-12.74;81.31;101253.06;6127968;23;20021;-74
2022/01/12 03:48:59;;;;;;;6.60;5.90;;;;;;;-12.78;81.59;101258.69;6152831;23;20017;-74
2022/01/12 03:51:26;;;;;;;5.80;5.30;;;;;;;-12.88;81.87;101238.81;6102518;23;20025;-75
2022/01/12 03:53:52;;;;;;;6.90;5.25;;;;;;;-12.77;82.41;101242.84;6102520;23;20023;-75
2022/01/12 03:56:18;;;;;;;4.75;4.25;;;;;;;-12.74;80.92;101243.03;6103287;23;20014;-75
2022/01/12 03:58:44;;;;;;;7.03;5.03;;;;;;;-12.79;81.67;101246.00;6102497;23;20072;-75
2022/01/12 04:01:10;;;;;;;5.20;4.00;;;;;;;-12.81;81.82;101235.00;6153241;23;20021;-75
2022/01/12 04:03:43;;;;;;;6.13;5.43;;;;;;;-12.84;80.65;101235.69;6102718;23;20024;-75
2022/01/12 04:08:55;;;;;;;5.80;5.30;;;;;;;-12.85;81.68;101231.44;6110143;23;20021;-75
2022/01/12 04:11:21;;;;;;;5.13;4.55;;;;;;;-12.90;81.33;101232.81;6102930;23;20028;-75
2022/01/12 04:13:49;;;;;;;6.50;5.88;;;;;;;-12.90;81.91;101234.47;6126124;23;20159;-74
2022/01/12 04:16:16;;;;;;;5.45;4.40;;;;;;;-12.84;80.94;101239.84;6099854;23;20026;-74
2022/01/12 04:18:42;;;;;;;7.18;5.70;;;;;;;-12.91;80.89;101238.63;6149635;23;20099;-74
2022/01/12 04:21:09;;;;;;;5.75;5.25;;;;;;;-12.89;81.14;101233.69;6123862;23;20029;-75
2022/01/12 04:23:37;;;;;;;5.63;4.97;;;;;;;-12.93;80.84;101236.81;6125275;23;20528;-76
2022/01/12 04:26:10;;;;;;;7.40;6.70;;;;;;;-12.97;81.21;101229.84;6099577;23;20092;-74
2022/01/12 04:28:38;;;;;;;7.53;5.45;;;;;;;-12.99;81.01;101227.25;6125868;23;20021;-74
2022/01/12 04:31:04;;;;;;;6.50;5.80;;;;;;;-13.06;80.57;101229.28;6126808;23;20018;-75
2022/01/12 04:33:31;;;;;;;6.80;6.20;;;;;;;-13.05;80.81;101229.38;6102689;23;20022;-75
2022/01/12 04:35:57;;;;;;;8.88;6.90;;;;;;;-13.06;80.66;101211.72;6152405;23;20409;-75
2022/01/12 04:38:27;;;;;;;4.20;3.90;;;;;;;-13.05;80.41;101216.81;6054886;23;20021;-75
2022/01/12 04:40:53;;;;;;;5.22;4.72;;;;;;;-13.00;81.17;101229.66;6126277;23;20071;-74
2022/01/12 04:43:21;;;;;;;5.45;4.97;;;;;;;-13.11;81.62;101239.09;6126801;23;20024;-75
2022/01/12 04:50:44;;;;;;;10.77;7.32;;;;;;;-13.08;79.96;101226.66;6126704;23;20022;-74
2022/01/12 04:53:11;;;;;;;8.18;7.38;;;;;;;-13.10;80.61;101238.31;6101893;23;20028;-75
2022/01/12 04:55:37;;;;;;;9.02;6.07;;;;;;;-13.09;81.14;101237.56;6126974;23;20370;-75
2022/01/12 04:58:04;;;;;;;6.88;5.65;;;;;;;-13.14;80.30;101238.91;6103755;23;20486;-75
2022/01/12 05:00:31;;;;;;;7.82;6.47;;;;;;;-13.10;80.87;101243.34;6107197;23;20040;-75
2022/01/12 05:13:41;;;;;;;6.38;5.78;;;;;;;-13.22;81.15;101242.59;6126466;23;20017;-75
2022/01/12 05:16:10;;;;;;;7.22;5.65;;;;;;;-13.19;80.56;101231.88;6102224;23;20200;-75
2022/01/12 05:18:38;;;;;;;4.80;4.35;;;;;;;-13.19;80.98;101227.72;6101797;23;20028;-75
2022/01/12 05:21:04;;;;;;;5.53;5.03;;;;;;;-13.18;80.27;101236.13;6101755;23;20466;-75
2022/01/12 05:23:31;;;;;;;8.05;7.35;;;;;;;-13.25;80.68;101232.38;6126095;23;20021;-75
2022/01/12 05:26:00;;;;;;;5.28;4.90;;;;;;;-13.26;80.74;101228.97;6077630;23;20036;-75
2022/01/12 05:28:27;;;;;;;7.72;6.25;;;;;;;-13.25;80.83;101235.72;6152579;23;20361;-75
2022/01/12 05:30:53;;;;;;;6.38;5.78;;;;;;;-13.23;81.05;101234.97;6152186;23;20013;-75
2022/01/12 05:33:22;;;;;;;3.63;3.33;;;;;;;-13.27;80.91;101228.88;6101534;23;20097;-72
2022/01/12 05:35:48;;;;;;;7.70;6.90;;;;;;;-13.24;80.36;101241.63;6126084;23;20469;-72
2022/01/12 05:38:15;;;;;;;7.40;6.78;;;;;;;-13.29;80.09;101238.84;6151772;23;20017;-72
2022/01/12 05:40:44;;;;;;;7.70;5.55;;;;;;;-13.27;80.73;101246.44;6152436;23;20024;-71
2022/01/12 05:43:14;;;;;;;8.93;8.02;;;;;;;-13.31;80.28;101232.84;6126190;23;20022;-72
2022/01/12 05:45:44;;;;;;;9.07;8.27;;;;;;;-13.35;80.11;101251.00;6125712;23;20017;-72
2022/01/12 05:50:39;;;;;;;9.98;9.07;;;;;;;-13.34;80.23;101244.34;6101507;23;20018;-72
2022/01/12 05:53:12;;;;;;;10.93;9.82;;;;;;;-13.39;80.83;101223.09;6117773;23;20217;-72
2022/01/12 05:55:43;;;;;;;8.80;7.85;;;;;;;-13.31;79.79;101236.97;6100048;23;20710;-72
2022/01/12 05:58:11;;;;;;;6.78;5.43;;;;;;;-13.28;80.36;101243.06;6123674;23;20021;-71
2022/01/12 06:00:38;;;;;;;11.25;10.23;;;;;;;-13.30;80.00;101233.72;6100771;23;20021;-72
2022/01/12 06:03:04;;;;;;;6.93;6.25;;;;;;;-13.31;80.30;101232.84;6123413;23;20013;-71
2022/01/12 06:05:30;;;;;;;11.07;9.80;;;;;;;-13.38;80.11;101240.75;6124092;23;20017;-74
2022/01/12 06:07:58;;;;;;;12.02;9.00;;;;;;;-13.35;79.62;101240.09;6123511;23;20023;-74
2022/01/12 06:10:24;;;;;;;8.95;8.05;;;;;;;-13.28;79.61;101227.13;6076154;23;20021;-73
2022/01/12 06:12:53;;;;;;;10.05;8.95;;;;;;;-13.35;80.03;101240.09;6099160;23;20028;-73
2022/01/12 06:15:20;;;;;;;6.43;5.90;;;;;;;-13.28;79.93;101227.13;6100255;23;20018;-73
2022/01/12 06:17:48;;;;;;;8.80;7.82;;;;;;;-13.32;79.65;101247.81;6123972;23;20092;-73
2022/01/12 06:20:17;;;;;;;11.00;10.10;;;;;;;-13.39;78.86;101253.22;6100425;23;20044;-72
2022/01/12 06:23:14;;;;;;;10.57;9.57;;;;;;;-13.47;79.29;101251.88;6069338;23;20014;-74
2022/01/12 06:25:48;;;;;;;11.60;10.15;;;;;;;-13.44;79.72;101254.56;6082344;23;20616;-72
2022/01/12 06:28:22;;;;;;;12.38;10.23;;;;;;;-13.45;78.96;101253.72;6104663;23;20017;-73
2022/01/12 06:33:34;;;;;;;9.15;8.27;;;;;;;-13.02;77.34;101269.75;6083680;23;20021;-73
2022/01/12 06:36:00;;;;;;;9.07;8.18;;;;;;;-12.81;76.36;101273.59;6123981;23;20037;-72
2022/01/12 06:38:26;;;;;;;10.35;7.47;;;;;;;-12.50;76.43;101260.34;6123707;23;20076;-72
2022/01/12 06:40:52;;;;;;;10.35;8.82;;;;;;;-12.97;75.96;101258.34;6124186;23;20022;-73
2022/01/12 06:43:18;;;;;;;10.75;8.77;;;;;;;-13.23;77.67;101260.06;6099117;23;20040;-73
2022/01/12 06:45:44;;;;;;;5.32;4.70;;;;;;;-13.21;77.68;101254.34;6075501;23;20021;-73
2022/01/12 06:48:10;;;;;;;8.05;7.20;;;;;;;-13.22;76.88;101267.72;6075365;23;20455;-74
2022/01/12 06:50:36;;;;;;;9.10;8.15;;;;;;;-13.16;77.44;101272.22;6075592;23;20021;-73
2022/01/12 06:53:02;;;;;;;9.57;7.47;;;;;;;-13.33;78.13;101284.63;6052813;23;20028;-74
2022/01/12 06:55:28;;;;;;;10.48;9.38;;;;;;;-13.34;77.26;101276.97;6126341;23;20104;-74
2022/01/12 06:57:55;;;;;;;10.10;9.18;;;;;;;-13.26;77.39;101283.34;6076609;23;20112;-74
2022/01/12 07:00:22;;;;;;;8.10;7.30;;;;;;;-13.01;77.52;101248.88;6101595;23;20029;-74
2022/01/12 07:02:48;;;;;;;10.43;8.68;;;;;;;-13.18;76.84;101274.63;6101010;23;20023;-74
2022/01/12 07:05:15;;;;;;;9.90;8.77;;;;;;;-13.02;75.78;101276.44;6102087;23;20029;-72
2022/01/12 07:07:41;;;;;;;7.95;7.25;;;;;;;-12.87;76.39;101269.81;6101570;23;20037;-73
2022/01/12 07:10:17;;;;;;;9.10;7.80;;;;;;;-12.87;75.83;101252.25;6125587;23;20370;-74
2022/01/12 07:12:45;;;;;;;7.40;6.50;;;;;;;-12.76;75.57;101244.56;6125476;23;20040;-75
2022/01/12 07:15:14;;;;;;;8.75;8.05;;;;;;;-12.69;74.23;101229.88;6102618;23;20021;-78
2022/01/12 07:17:48;;;;;;;9.48;8.32;;;;;;;-12.30;74.25;101225.50;6105345;23;20422;-75
2022/01/12 07:20:16;;;;;;;9.20;7.35;;;;;;;-12.26;74.24;101246.66;6084521;23;20017;-74
2022/01/12 07:22:43;;;;;;;13.18;10.52;;;;;;;-12.03;72.27;101233.75;6110394;23;20018;-75
2022/01/12 07:25:09;;;;;;;9.13;8.25;;;;;;;-12.01;71.96;101249.84;6079025;23;20021;-73
2022/01/12 07:27:35;;;;;;;15.48;10.57;;;;;;;-11.49;71.34;101246.03;6151610;23;20044;-75
2022/01/12 07:30:01;;;;;;;7.85;6.75;;;;;;;-11.61;69.41;101222.66;6125512;23;20014;-73
2022/01/12 07:32:29;;;;;;;8.52;7.63;;;;;;;-11.27;69.58;101256.50;6077865;23;20426;-74
2022/01/12 07:34:57;;;;;;;7.00;6.40;;;;;;;-11.60;70.25;101228.56;6100657;23;20021;-75
2022/01/12 07:37:24;;;;;;;6.90;6.20;;;;;;;-11.65;71.20;101256.88;6125408;23;20022;-74
2022/01/12 07:39:50;;;;;;;8.60;7.68;;;;;;;-11.65;70.78;101251.84;6125633;23;20018;-73
2022/01/12 07:42:16;;;;;;;6.18;5.53;;;;;;;-11.93;71.11;101265.34;6151219;23;20021;-74
2022/01/12 07:44:44;;;;;;;8.57;5.93;;;;;;;-11.51;70.11;101239.16;6125142;23;20024;-75
2022/01/12 07:47:10;;;;;;;8.73;6.47;;;;;;;-11.06;67.62;101234.09;6125044;23;20113;-74
2022/01/12 07:49:36;;;;;;;6.95;5.28;;;;;;;-10.60;66.44;101244.94;6125400;23;20022;-73
2022/01/12 07:52:04;;;;;;;5.88;5.38;;;;;;;-10.97;67.22;101221.13;6150499;23;20009;-73
2022/01/12 07:54:31;;;;;;;9.48;8.15;;;;;;;-10.93;66.33;101233.97;6100872;23;20168;-73
2022/01/12 07:56:57;;;;;;;4.95;4.50;;;;;;;-10.86;66.99;101243.56;6076784;23;20045;-73
2022/01/12 07:59:24;;;;;;;8.55;7.75;;;;;;;-10.80;67.57;101236.34;6125321;23;20026;-71
2022/01/12 08:01:50;;;;;;;10.45;8.85;;;;;;;-10.83;68.13;101245.41;6151036;23;20048;-72
2022/01/12 08:04:16;;;;;;;7.32;6.00;;;;;;;-10.78;67.17;101257.47;6124914;23;20021;-71
2022/01/12 08:06:42;;;;;;;5.60;5.10;;;;;;;-10.19;65.00;101225.19;6124707;23;20451;-72
2022/01/12 08:09:08;;;;;;;6.63;4.78;;;;;;;-11.55;68.90;101239.78;6150585;23;20024;-71
2022/01/12 08:11:34;;;;;;;6.93;6.30;;;;;;;-12.17;70.92;101239.69;6150353;23;20477;-73
2022/01/12 08:14:00;;;;;;;7.40;6.28;;;;;;;-12.05;71.24;101240.38;6150456;23;20116;-71
2022/01/12 08:16:26;;;;;;;6.63;5.68;;;;;;;-11.26;68.98;101232.16;6151333;23;20025;-71
2022/01/12 08:18:53;;;;;;;8.30;7.30;;;;;;;-10.53;67.29;101257.06;6101017;23;20394;-71
2022/01/12 08:21:18;;;;;;;10.43;7.03;;;;;;;-10.15;64.23;101236.31;6124892;23;20024;-72
2022/01/12 08:23:44;;;;;;;6.97;6.32;;;;;;;-10.71;65.32;101241.88;6151087;23;20026;-73
2022/01/12 08:26:10;;;;;;;8.35;6.43;;;;;;;-11.36;69.18;101229.94;6150867;23;20017;-72
2022/01/12 08:28:36;;;;;;;6.75;5.07;;;;;;;-11.04;66.79;101235.03;6124894;23;20018;-72
2022/01/12 08:31:02;;;;;;;6.90;5.30;;;;;;;-11.17;68.98;101230.13;6124966;23;20024;-72
2022/01/12 08:33:29;;;;;;;6.82;6.05;;;;;;;-11.32;68.86;101216.72;6151613;23;20108;-73
2022/01/12 08:35:55;;;;;;;11.63;7.63;;;;;;;-11.19;68.15;101214.09;6151317;23;20104;-73
2022/01/12 08:38:22;;;;;;;6.10;5.50;;;;;;;-10.60;66.70;101209.63;6152466;23;20017;-74
2022/01/12 08:40:51;;;;;;;10.07;8.95;;;;;;;-9.70;63.55;101207.34;6126009;23;20362;-73
2022/01/12 08:43:17;;;;;;;8.45;4.93;;;;;;;-8.83;60.51;101215.59;6150798;23;20022;-73
2022/01/12 08:45:44;;;;;;;5.78;5.25;;;;;;;-9.40;60.75;101212.97;6124896;23;20028;-73
2022/01/12 08:48:10;;;;;;;7.38;6.68;;;;;;;-10.43;64.08;101213.00;6150559;23;20021;-73
2022/01/12 08:50:35;;;;;;;8.38;7.47;;;;;;;-10.77;66.16;101218.84;6151226;23;20508;-74
2022/01/12 08:53:01;;;;;;;9.82;8.23;;;;;;;-11.26;68.18;101228.00;6100553;23;20148;-73
2022/01/12 08:55:27;;;;;;;8.18;7.47;;;;;;;-9.48;63.16;101220.19;6151108;23;20028;-73
2022/01/12 08:57:56;;;;;;;9.02;6.32;;;;;;;-9.36;61.58;101207.28;6151649;23;20056;-73
2022/01/12 09:00:22;;;;;;;5.28;4.88;;;;;;;-10.02;63.27;101223.47;6150746;23;20028;-73
2022/01/12 09:02:50;;;;;;;11.02;7.75;;;;;;;-10.09;63.34;101208.81;6125085;23;20096;-73
2022/01/12 09:05:19;;;;;;;10.13;8.60;;;;;;;-10.54;65.69;101209.06;6125371;23;20025;-73
2022/01/12 09:07:45;;;;;;;16.48;11.63;;;;;;;-10.32;64.77;101211.88;6148965;23;20029;-73
2022/01/12 09:10:11;;;;;;;7.60;6.85;;;;;;;-10.49;64.46;101227.81;6126297;23;20021;-73
2022/01/12 09:12:37;;;;;;;7.50;6.80;;;;;;;-11.15;65.90;101213.44;6151749;23;20018;-74
2022/01/12 09:15:13;;;;;;;7.03;6.35;;;;;;;-10.69;65.20;101209.16;6122761;23;20029;-74
2022/01/12 09:17:39;;;;;;;6.45;5.85;;;;;;;-10.52;64.56;101210.88;6144155;23;20052;-72
2022/01/12 09:20:06;;;;;;;5.70;5.20;;;;;;;-10.93;66.39;101188.59;6153668;23;20496;-72
2022/01/12 09:22:32;;;;;;;5.32;4.93;;;;;;;-11.14;66.31;101172.34;6179973;23;20405;-72
2022/01/12 09:24:58;;;;;;;6.85;6.18;;;;;;;-12.10;69.78;101162.91;6179700;23;20013;-73
2022/01/12 09:27:24;;;;;;;5.90;5.35;;;;;;;-12.20;71.03;101156.47;6180439;23;20017;-72
2022/01/12 09:29:50;;;;;;;7.40;6.75;;;;;;;-12.40;71.35;101146.94;6129396;23;20021;-72
2022/01/12 09:32:18;;;;;;;4.00;3.70;;;;;;;-12.42;72.23;101143.47;6179114;23;20442;-73
2022/01/12 09:34:44;;;;;;;7.55;6.72;;;;;;;-12.24;72.68;101163.00;6129680;23;20071;-72
2022/01/12 09:37:10;;;;;;;9.43;8.05;;;;;;;-12.37;72.20;101163.09;6181094;23;20025;-72
2022/01/12 09:39:39;;;;;;;8.90;7.18;;;;;;;-12.40;73.73;101164.56;6155862;23;20021;-72
2022/01/12 09:42:05;;;;;;;7.57;5.97;;;;;;;-12.27;73.36;101149.38;6128714;23;20551;-72
2022/01/12 09:44:36;;;;;;;10.57;4.90;;;;;;;-12.16;73.24;101148.31;6179811;23;20021;-73
2022/01/12 09:47:04;;;;;;;6.35;5.72;;;;;;;-12.02;72.77;101152.47;6153742;23;20044;-72
2022/01/12 09:49:31;;;;;;;6.03;4.40;;;;;;;-12.00;72.51;101155.94;6181020;23;20044;-72
2022/01/12 09:51:58;;;;;;;8.70;7.80;;;;;;;-12.04;71.81;101161.56;6155041;23;20021;-72
2022/01/12 09:54:25;;;;;;;7.32;6.63;;;;;;;-12.26;73.26;101148.56;6154716;23;20433;-71
2022/01/12 09:56:52;;;;;;;9.07;8.27;;;;;;;-12.45;72.97;101153.34;6155011;23;20020;-72
2022/01/12 09:59:22;;;;;;;6.53;5.93;;;;;;;-12.37;73.05;101137.94;6179876;23;20020;-72
2022/01/12 10:01:48;;;;;;;8.55;7.78;;;;;;;-12.30;73.89;101144.19;6180647;23;20417;-72
2022/01/12 10:04:18;;;;;;;8.55;7.85;;;;;;;-12.38;73.21;101140.34;6130004;23;20128;-74
2022/01/12 10:06:50;;;;;;;10.07;9.18;;;;;;;-12.34;73.80;101154.84;6082003;23;20020;-72
2022/01/12 10:09:16;;;;;;;9.60;8.60;;;;;;;-12.29;72.87;101153.44;6180751;23;20079;-73
2022/01/12 10:11:52;;;;;;;12.02;7.07;;;;;;;-12.41;73.24;101135.16;6181205;23;20021;-74
2022/01/12 10:14:21;;;;;;;8.80;7.95;;;;;;;-12.41;73.13;101150.22;6153656;23;20106;-73
2022/01/12 10:16:56;;;;;;;6.38;5.90;;;;;;;-12.50;73.82;101132.13;6129587;23;20119;-72
2022/01/12 10:19:30;;;;;;;10.45;9.43;;;;;;;-12.32;73.84;101155.78;6154343;23;20021;-73
2022/01/12 10:21:57;;;;;;;8.40;6.03;;;;;;;-12.21;72.91;101148.06;6154751;23;20024;-73
2022/01/12 10:24:24;;;;;;;11.07;9.90;;;;;;;-12.24;73.43;101150.41;6130071;23;20021;-73
2022/01/12 10:26:51;;;;;;;11.30;10.20;;;;;;;-12.48;73.42;101145.63;6153511;23;20484;-73
2022/01/12 10:29:20;;;;;;;10.80;9.80;;;;;;;-12.42;74.34;101144.34;6154571;23;20456;-72
2022/01/12 10:31:53;;;;;;;12.13;11.13;;;;;;;-12.51;73.66;101143.81;6180566;23;20025;-73
2022/01/12 10:34:23;;;;;;;12.45;11.20;;;;;;;-12.41;74.03;101145.19;6180370;23;20418;-71
2022/01/12 10:37:26;;;;;;;7.88;7.07;;;;;;;-12.55;73.48;101136.00;6181074;23;20123;-71
2022/01/12 10:40:19;;;;;;;8.60;7.90;;;;;;;-12.59;73.54;101114.84;6161664;23;20028;-72
2022/01/12 10:42:45;;;;;;;10.73;9.73;;;;;;;-12.49;73.63;101136.34;6155192;23;20097;-72
2022/01/12 10:45:11;;;;;;;13.18;6.00;;;;;;;-12.29;73.04;101110.69;6154478;23;20467;-72
2022/01/12 10:47:37;;;;;;;6.93;6.22;;;;;;;-12.11;72.51;101125.94;6158786;23;20024;-73
2022/01/12 10:50:08;;;;;;;5.63;5.18;;;;;;;-12.08;72.87;101100.94;6185955;23;20021;-73
2022/01/12 10:52:37;;;;;;;15.35;8.82;;;;;;;-12.18;71.88;101104.59;6111677;23;20021;-72
2022/01/12 10:55:09;;;;;;;12.23;9.93;;;;;;;-12.48;72.97;101093.69;6157045;23;20027;-73
2022/01/12 10:57:39;;;;;;;7.93;7.00;;;;;;;-12.57;74.22;101078.09;6154293;23;20059;-72
2022/01/12 11:00:18;;;;;;;8.55;7.75;;;;;;;-12.50;74.59;101086.84;6153632;23;20041;-72
2022/01/12 11:02:58;;;;;;;7.72;6.68;;;;;;;-12.28;73.07;101095.69;6154592;23;20025;-73
2022/01/12 11:05:29;;;;;;;6.75;6.13;;;;;;;-12.29;73.48;101109.03;6154450;23;20051;-74
2022/01/12 11:07:55;;;;;;;8.40;7.43;;;;;;;-12.37;74.18;101109.41;6180944;23;20049;-72
2022/01/12 11:10:22;;;;;;;10.85;8.00;;;;;;;-12.29;73.06;101105.66;6154205;23;20095;-72
2022/01/12 11:12:49;;;;;;;7.88;7.15;;;;;;;-12.39;73.35;101103.41;6181558;23;20679;-73
2022/01/12 11:15:16;;;;;;;6.55;5.95;;;;;;;-12.15;72.49;101088.81;6130748;23;20045;-73
2022/01/12 11:17:46;;;;;;;6.13;5.60;;;;;;;-12.11;72.27;101100.78;6154556;23;20020;-72
2022/01/12 11:20:19;;;;;;;3.70;3.40;;;;;;;-11.93;71.95;101097.63;6129835;23;20124;-72
2022/01/12 11:23:06;;;;;;;5.10;4.68;;;;;;;-11.98;72.93;101098.16;6181074;23;20342;-72
2022/01/12 11:25:33;;;;;;;5.25;4.85;;;;;;;-11.88;71.94;101095.34;6129763;23;20016;-73
2022/01/12 11:28:22;;;;;;;5.05;4.57;;;;;;;-11.87;72.16;101102.09;6180598;23;20021;-73
2022/01/12 11:30:50;;;;;;;6.85;6.25;;;;;;;-11.78;71.44;101098.44;6154495;23;20119;-74
2022/01/12 11:33:17;;;;;;;6.50;5.43;;;;;;;-11.93;72.69;101095.09;6187711;23;20028;-73
2022/01/12 11:35:45;;;;;;;9.43;4.85;;;;;;;-11.88;72.08;101088.69;6161038;23;20045;-73
2022/01/12 11:38:35;;;;;;;4.53;4.13;;;;;;;-12.01;73.08;101090.44;6158808;23;20028;-73
2022/01/12 11:41:09;;;;;;;7.15;6.45;;;;;;;-12.17;73.21;101081.19;6156845;23;20021;-71
2022/01/12 11:43:46;;;;;;;5.18;4.32;;;;;;;-12.11;73.01;101081.53;6156540;23;20024;-71
2022/01/12 11:46:17;;;;;;;6.55;5.65;;;;;;;-12.09;72.94;101072.41;6156295;23;20465;-71
2022/01/12 11:48:53;;;;;;;8.23;7.28;;;;;;;-12.30;73.33;101078.78;6156258;23;20021;-71
2022/01/12 11:51:44;;;;;;;9.00;7.80;;;;;;;-12.43;74.35;101053.75;6182510;23;20028;-73
2022/01/12 11:54:11;;;;;;;8.77;6.80;;;;;;;-12.19;73.58;101055.94;6155167;23;20032;-71
2022/01/12 11:56:38;;;;;;;10.93;7.03;;;;;;;-12.29;73.82;101055.34;6182268;23;20017;-73
2022/01/12 11:59:11;;;;;;;4.75;4.35;;;;;;;-12.25;73.84;101029.59;6131270;23;20017;-73
2022/01/12 12:01:51;;;;;;;7.60;5.90;;;;;;;-12.35;74.28;101034.91;6182277;23;20024;-73
2022/01/12 12:04:24;;;;;;;10.70;6.03;;;;;;;-12.33;75.16;101029.16;6131567;23;20012;-71
2022/01/12 12:07:02;;;;;;;7.47;6.07;;;;;;;-12.45;75.29;101015.06;6181784;23;20358;-72
2022/01/12 12:09:43;;;;;;;13.25;7.65;;;;;;;-12.42;75.29;101041.22;6106833;23;20021;-72
2022/01/12 12:12:10;;;;;;;10.32;8.77;;;;;;;-12.57;75.17;101031.97;6082941;23;20020;-72
2022/01/12 12:14:37;;;;;;;11.13;8.02;;;;;;;-12.50;75.80;101044.13;6082367;23;20029;-73
2022/01/12 12:17:03;;;;;;;8.20;7.50;;;;;;;-12.52;75.02;101033.09;6155293;23;20017;-73
2022/01/12 12:19:29;;;;;;;10.40;8.38;;;;;;;-12.52;75.53;101025.56;6058296;23;20017;-72
2022/01/12 12:21:55;;;;;;;8.98;7.47;;;;;;;-12.66;75.48;101006.34;6155387;23;20469;-73
2022/01/12 12:24:21;;;;;;;7.40;6.68;;;;;;;-12.56;75.35;101016.13;6155360;23;20020;-72
2022/01/12 12:26:51;;;;;;;6.85;6.22;;;;;;;-12.62;75.12;101005.72;6082250;23;20509;-73
2022/01/12 12:29:27;;;;;;;6.00;5.40;;;;;;;-12.54;75.33;101004.50;6131278;23;20016;-73
2022/01/12 12:31:53;;;;;;;9.32;6.20;;;;;;;-12.60;75.77;101000.00;6084676;23;20021;-73
2022/01/12 12:34:27;;;;;;;8.93;7.38;;;;;;;-12.67;75.73;100994.53;6105108;23;20021;-71
2022/01/12 12:37:07;;;;;;;10.10;5.85;;;;;;;-12.68;76.05;100977.72;6155638;23;20024;-72
2022/01/12 12:39:38;;;;;;;6.55;5.95;;;;;;;-12.72;76.27;100992.63;6155585;23;20056;-71
2022/01/12 12:42:13;;;;;;;8.10;6.25;;;;;;;-12.76;76.32;101005.81;6178388;23;20028;-71
2022/01/12 12:44:40;;;;;;;8.25;6.68;;;;;;;-12.75;75.99;101002.53;6178139;23;20049;-72
2022/01/12 12:47:13;;;;;;;6.85;6.05;;;;;;;-12.86;75.93;101001.03;6151283;23;20103;-72